sensor_id;sensor_type;location;lat;lon;timestamp;P1;durP1;ratioP1;P2;durP2;ratioP2
18210;SDS011;9231;48.852;9.882;2023-07-24T00:00:20;8.07;;;5.90;;
18210;SDS011;9231;48.852;9.882;2023-07-24T00:02:46;6.97;;;5.13;;
18210;SDS011;9231;48.852;9.882;2023-07-24T00:05:13;13.87;;;6.97;;
18210;SDS011;9231;48.852;9.882;2023-07-24T00:07:39;11.97;;;7.50;;
18210;SDS011;9231;48.852;9.882;2023-07-24T00:10:06;14.17;;;7.53;;
18210;SDS011;9231;48.852;9.882;2023-07-24T00:12:34;11.07;;;6.97;;
18210;SDS011;9231;48.852;9.882;2023-07-24T00:15:00;12.73;;;6.80;;
18210;SDS011;9231;48.852;9.882;2023-07-24T00:17:27;11.43;;;6.73;;
18210;SDS011;9231;48.852;9.882;2023-07-24T00:19:53;10.37;;;6.70;;
18210;SDS011;9231;48.852;9.882;2023-07-24T00:22:20;10.80;;;5.93;;
18210;SDS011;9231;48.852;9.882;2023-07-24T00:24:46;10.40;;;7.17;;
18210;SDS011;9231;48.852;9.882;2023-07-24T00:27:13;9.97;;;5.77;;
18210;SDS011;9231;48.852;9.882;2023-07-24T00:29:41;10.93;;;6.47;;
18210;SDS011;9231;48.852;9.882;2023-07-24T00:32:08;10.93;;;6.33;;
18210;SDS011;9231;48.852;9.882;2023-07-24T00:34:34;8.37;;;6.20;;
18210;SDS011;9231;48.852;9.882;2023-07-24T00:37:01;8.27;;;6.13;;
18210;SDS011;9231;48.852;9.882;2023-07-24T00:39:27;8.53;;;6.30;;
18210;SDS011;9231;48.852;9.882;2023-07-24T00:41:54;10.27;;;7.50;;
18210;SDS011;9231;48.852;9.882;2023-07-24T00:44:21;10.40;;;6.67;;
18210;SDS011;9231;48.852;9.882;2023-07-24T00:46:51;10.10;;;6.27;;
18210;SDS011;9231;48.852;9.882;2023-07-24T00:49:19;10.37;;;6.83;;
18210;SDS011;9231;48.852;9.882;2023-07-24T00:51:45;11.83;;;7.07;;
18210;SDS011;9231;48.852;9.882;2023-07-24T00:54:12;9.83;;;6.30;;
18210;SDS011;9231;48.852;9.882;2023-07-24T00:56:41;9.90;;;6.57;;
18210;SDS011;9231;48.852;9.882;2023-07-24T00:59:08;10.87;;;6.33;;
18210;SDS011;9231;48.852;9.882;2023-07-24T01:01:34;9.57;;;6.30;;
18210;SDS011;9231;48.852;9.882;2023-07-24T01:04:03;8.97;;;6.37;;
18210;SDS011;9231;48.852;9.882;2023-07-24T01:06:30;11.10;;;6.40;;
18210;SDS011;9231;48.852;9.882;2023-07-24T01:08:57;10.87;;;6.80;;
18210;SDS011;9231;48.852;9.882;2023-07-24T01:11:24;9.43;;;6.67;;
18210;SDS011;9231;48.852;9.882;2023-07-24T01:13:55;8.50;;;6.13;;
18210;SDS011;9231;48.852;9.882;2023-07-24T01:16:22;10.10;;;6.80;;
18210;SDS011;9231;48.852;9.882;2023-07-24T01:18:52;12.37;;;6.87;;
18210;SDS011;9231;48.852;9.882;2023-07-24T01:21:25;8.93;;;6.50;;
18210;SDS011;9231;48.852;9.882;2023-07-24T01:23:59;8.97;;;6.37;;
18210;SDS011;9231;48.852;9.882;2023-07-24T01:26:30;8.83;;;6.87;;
18210;SDS011;9231;48.852;9.882;2023-07-24T01:28:57;9.87;;;7.37;;
18210;SDS011;9231;48.852;9.882;2023-07-24T01:31:24;10.33;;;6.83;;
18210;SDS011;9231;48.852;9.882;2023-07-24T01:33:50;8.10;;;5.97;;
18210;SDS011;9231;48.852;9.882;2023-07-24T01:36:17;7.67;;;6.40;;
18210;SDS011;9231;48.852;9.882;2023-07-24T01:38:44;9.10;;;6.47;;
18210;SDS011;9231;48.852;9.882;2023-07-24T01:41:11;8.47;;;6.53;;
18210;SDS011;9231;48.852;9.882;2023-07-24T01:43:39;11.10;;;7.03;;
18210;SDS011;9231;48.852;9.882;2023-07-24T01:46:08;12.50;;;7.53;;
18210;SDS011;9231;48.852;9.882;2023-07-24T01:48:35;9.17;;;6.73;;
18210;SDS011;9231;48.852;9.882;2023-07-24T01:51:01;9.17;;;7.00;;
18210;SDS011;9231;48.852;9.882;2023-07-24T01:53:27;9.10;;;6.10;;
18210;SDS011;9231;48.852;9.882;2023-07-24T01:55:54;9.13;;;6.33;;
18210;SDS011;9231;48.852;9.882;2023-07-24T01:58:20;10.30;;;6.97;;
18210;SDS011;9231;48.852;9.882;2023-07-24T02:00:49;10.00;;;6.80;;
18210;SDS011;9231;48.852;9.882;2023-07-24T02:03:15;8.87;;;6.87;;
18210;SDS011;9231;48.852;9.882;2023-07-24T02:05:42;14.33;;;7.47;;
18210;SDS011;9231;48.852;9.882;2023-07-24T02:08:08;10.07;;;7.00;;
18210;SDS011;9231;48.852;9.882;2023-07-24T02:10:36;10.43;;;6.10;;
18210;SDS011;9231;48.852;9.882;2023-07-24T02:13:03;8.27;;;6.13;;
18210;SDS011;9231;48.852;9.882;2023-07-24T02:15:32;8.37;;;6.37;;
18210;SDS011;9231;48.852;9.882;2023-07-24T02:18:00;8.67;;;6.60;;
18210;SDS011;9231;48.852;9.882;2023-07-24T02:20:26;9.47;;;7.00;;
18210;SDS011;9231;48.852;9.882;2023-07-24T02:22:53;9.57;;;6.30;;
18210;SDS011;9231;48.852;9.882;2023-07-24T02:25:19;9.97;;;6.33;;
18210;SDS011;9231;48.852;9.882;2023-07-24T02:27:45;10.23;;;7.23;;
18210;SDS011;9231;48.852;9.882;2023-07-24T02:30:12;9.63;;;6.40;;
18210;SDS011;9231;48.852;9.882;2023-07-24T02:32:38;12.27;;;7.40;;
18210;SDS011;9231;48.852;9.882;2023-07-24T02:35:07;11.90;;;7.27;;
18210;SDS011;9231;48.852;9.882;2023-07-24T02:37:33;9.03;;;6.50;;
18210;SDS011;9231;48.852;9.882;2023-07-24T02:40:00;11.60;;;7.40;;
18210;SDS011;9231;48.852;9.882;2023-07-24T02:42:26;11.63;;;7.17;;
18210;SDS011;9231;48.852;9.882;2023-07-24T02:44:53;11.10;;;6.77;;
18210;SDS011;9231;48.852;9.882;2023-07-24T02:47:19;9.20;;;6.70;;
18210;SDS011;9231;48.852;9.882;2023-07-24T02:49:46;7.57;;;5.90;;
18210;SDS011;9231;48.852;9.882;2023-07-24T02:52:14;9.07;;;6.83;;
18210;SDS011;9231;48.852;9.882;2023-07-24T02:54:40;9.73;;;6.93;;
18210;SDS011;9231;48.852;9.882;2023-07-24T02:57:06;8.43;;;6.67;;
18210;SDS011;9231;48.852;9.882;2023-07-24T02:59:33;10.77;;;6.70;;
18210;SDS011;9231;48.852;9.882;2023-07-24T03:02:00;9.43;;;6.57;;
18210;SDS011;9231;48.852;9.882;2023-07-24T03:04:26;8.80;;;6.73;;
18210;SDS011;9231;48.852;9.882;2023-07-24T03:06:53;8.93;;;7.03;;
18210;SDS011;9231;48.852;9.882;2023-07-24T03:09:21;9.63;;;6.73;;
18210;SDS011;9231;48.852;9.882;2023-07-24T03:11:47;7.60;;;6.30;;
18210;SDS011;9231;48.852;9.882;2023-07-24T03:14:14;8.60;;;6.17;;
18210;SDS011;9231;48.852;9.882;2023-07-24T03:16:40;8.80;;;6.50;;
18210;SDS011;9231;48.852;9.882;2023-07-24T03:19:07;8.30;;;6.57;;
18210;SDS011;9231;48.852;9.882;2023-07-24T03:21:33;8.23;;;6.67;;
18210;SDS011;9231;48.852;9.882;2023-07-24T03:24:00;9.83;;;7.03;;
18210;SDS011;9231;48.852;9.882;2023-07-24T03:26:28;8.00;;;6.33;;
18210;SDS011;9231;48.852;9.882;2023-07-24T03:28:54;9.73;;;6.67;;
18210;SDS011;9231;48.852;9.882;2023-07-24T03:31:21;8.97;;;7.07;;
18210;SDS011;9231;48.852;9.882;2023-07-24T03:33:47;10.30;;;6.53;;
18210;SDS011;9231;48.852;9.882;2023-07-24T03:36:14;9.47;;;6.57;;
18210;SDS011;9231;48.852;9.882;2023-07-24T03:38:40;10.37;;;6.93;;
18210;SDS011;9231;48.852;9.882;2023-07-24T03:41:07;9.33;;;6.87;;
18210;SDS011;9231;48.852;9.882;2023-07-24T03:43:35;10.27;;;6.83;;
18210;SDS011;9231;48.852;9.882;2023-07-24T03:46:01;8.70;;;6.67;;
18210;SDS011;9231;48.852;9.882;2023-07-24T03:48:28;11.10;;;6.70;;
18210;SDS011;9231;48.852;9.882;2023-07-24T03:50:57;8.63;;;6.87;;
18210;SDS011;9231;48.852;9.882;2023-07-24T03:53:23;10.57;;;6.70;;
18210;SDS011;9231;48.852;9.882;2023-07-24T03:55:50;9.70;;;6.87;;
18210;SDS011;9231;48.852;9.882;2023-07-24T03:58:16;8.53;;;6.67;;
18210;SDS011;9231;48.852;9.882;2023-07-24T04:00:44;8.47;;;6.80;;
18210;SDS011;9231;48.852;9.882;2023-07-24T04:03:11;8.80;;;6.40;;
18210;SDS011;9231;48.852;9.882;2023-07-24T04:05:37;8.00;;;6.00;;
18210;SDS011;9231;48.852;9.882;2023-07-24T04:08:04;9.37;;;6.77;;
18210;SDS011;9231;48.852;9.882;2023-07-24T04:10:30;9.30;;;6.47;;
18210;SDS011;9231;48.852;9.882;2023-07-24T04:12:57;10.60;;;6.60;;
18210;SDS011;9231;48.852;9.882;2023-07-24T04:15:23;8.27;;;6.20;;
18210;SDS011;9231;48.852;9.882;2023-07-24T04:17:51;9.63;;;6.73;;
18210;SDS011;9231;48.852;9.882;2023-07-24T04:20:17;10.07;;;6.77;;
18210;SDS011;9231;48.852;9.882;2023-07-24T04:22:44;8.63;;;6.20;;
18210;SDS011;9231;48.852;9.882;2023-07-24T04:25:10;9.57;;;6.00;;
18210;SDS011;9231;48.852;9.882;2023-07-24T04:27:37;9.90;;;6.70;;
18210;SDS011;9231;48.852;9.882;2023-07-24T04:30:05;9.67;;;6.60;;
18210;SDS011;9231;48.852;9.882;2023-07-24T04:32:32;9.30;;;6.60;;
18210;SDS011;9231;48.852;9.882;2023-07-24T04:34:59;6.93;;;5.50;;
18210;SDS011;9231;48.852;9.882;2023-07-24T04:37:26;10.07;;;6.57;;
18210;SDS011;9231;48.852;9.882;2023-07-24T04:39:52;9.33;;;6.70;;
18210;SDS011;9231;48.852;9.882;2023-07-24T04:42:19;10.20;;;6.33;;
18210;SDS011;9231;48.852;9.882;2023-07-24T04:44:45;8.63;;;6.33;;
18210;SDS011;9231;48.852;9.882;2023-07-24T04:47:12;7.80;;;5.97;;
18210;SDS011;9231;48.852;9.882;2023-07-24T04:49:38;10.47;;;6.53;;
18210;SDS011;9231;48.852;9.882;2023-07-24T04:52:06;10.60;;;7.17;;
18210;SDS011;9231;48.852;9.882;2023-07-24T04:54:33;8.23;;;6.13;;
18210;SDS011;9231;48.852;9.882;2023-07-24T04:56:59;10.40;;;6.90;;
18210;SDS011;9231;48.852;9.882;2023-07-24T04:59:26;8.20;;;6.13;;
18210;SDS011;9231;48.852;9.882;2023-07-24T05:01:52;8.47;;;6.67;;
18210;SDS011;9231;48.852;9.882;2023-07-24T05:04:19;8.00;;;6.10;;
18210;SDS011;9231;48.852;9.882;2023-07-24T05:06:45;9.60;;;6.03;;
18210;SDS011;9231;48.852;9.882;2023-07-24T05:09:13;8.33;;;6.33;;
18210;SDS011;9231;48.852;9.882;2023-07-24T05:11:40;7.27;;;5.60;;
18210;SDS011;9231;48.852;9.882;2023-07-24T05:14:07;9.10;;;6.57;;
18210;SDS011;9231;48.852;9.882;2023-07-24T05:16:34;9.47;;;6.33;;
18210;SDS011;9231;48.852;9.882;2023-07-24T05:19:01;7.70;;;5.97;;
18210;SDS011;9231;48.852;9.882;2023-07-24T05:21:27;8.40;;;6.67;;
18210;SDS011;9231;48.852;9.882;2023-07-24T05:23:54;10.13;;;7.07;;
18210;SDS011;9231;48.852;9.882;2023-07-24T05:26:21;8.63;;;6.40;;
18210;SDS011;9231;48.852;9.882;2023-07-24T05:28:48;8.33;;;6.33;;
18210;SDS011;9231;48.852;9.882;2023-07-24T05:31:14;8.80;;;6.23;;
18210;SDS011;9231;48.852;9.882;2023-07-24T05:33:41;11.20;;;6.60;;
18210;SDS011;9231;48.852;9.882;2023-07-24T05:36:07;8.10;;;5.90;;
18210;SDS011;9231;48.852;9.882;2023-07-24T05:38:33;10.30;;;5.97;;
18210;SDS011;9231;48.852;9.882;2023-07-24T05:41:00;12.23;;;6.03;;
18210;SDS011;9231;48.852;9.882;2023-07-24T05:43:29;8.57;;;6.23;;
18210;SDS011;9231;48.852;9.882;2023-07-24T05:45:56;9.03;;;6.40;;
18210;SDS011;9231;48.852;9.882;2023-07-24T05:48:23;10.17;;;6.63;;
18210;SDS011;9231;48.852;9.882;2023-07-24T05:50:49;10.17;;;6.53;;
18210;SDS011;9231;48.852;9.882;2023-07-24T05:53:16;10.40;;;6.43;;
18210;SDS011;9231;48.852;9.882;2023-07-24T05:55:43;9.70;;;6.77;;
18210;SDS011;9231;48.852;9.882;2023-07-24T05:58:09;9.57;;;6.63;;
18210;SDS011;9231;48.852;9.882;2023-07-24T06:00:37;11.27;;;6.30;;
18210;SDS011;9231;48.852;9.882;2023-07-24T06:03:04;9.67;;;6.03;;
18210;SDS011;9231;48.852;9.882;2023-07-24T06:05:30;7.97;;;5.80;;
18210;SDS011;9231;48.852;9.882;2023-07-24T06:07:57;7.30;;;6.20;;
18210;SDS011;9231;48.852;9.882;2023-07-24T06:10:23;11.23;;;6.40;;
18210;SDS011;9231;48.852;9.882;2023-07-24T06:12:50;10.77;;;6.00;;
18210;SDS011;9231;48.852;9.882;2023-07-24T06:15:17;9.17;;;6.83;;
18210;SDS011;9231;48.852;9.882;2023-07-24T06:17:44;9.73;;;5.90;;
18210;SDS011;9231;48.852;9.882;2023-07-24T06:20:11;7.70;;;6.23;;
18210;SDS011;9231;48.852;9.882;2023-07-24T06:22:37;8.73;;;6.27;;
18210;SDS011;9231;48.852;9.882;2023-07-24T06:25:04;9.07;;;6.87;;
18210;SDS011;9231;48.852;9.882;2023-07-24T06:27:31;9.77;;;6.73;;
18210;SDS011;9231;48.852;9.882;2023-07-24T06:29:57;9.27;;;6.23;;
18210;SDS011;9231;48.852;9.882;2023-07-24T06:32:23;9.37;;;6.40;;
18210;SDS011;9231;48.852;9.882;2023-07-24T06:34:51;9.47;;;7.30;;
18210;SDS011;9231;48.852;9.882;2023-07-24T06:37:18;10.87;;;6.97;;
18210;SDS011;9231;48.852;9.882;2023-07-24T06:39:44;9.10;;;6.73;;
18210;SDS011;9231;48.852;9.882;2023-07-24T06:42:11;9.90;;;6.37;;
18210;SDS011;9231;48.852;9.882;2023-07-24T06:44:37;8.97;;;6.60;;
18210;SDS011;9231;48.852;9.882;2023-07-24T06:47:04;9.23;;;6.40;;
18210;SDS011;9231;48.852;9.882;2023-07-24T06:49:30;9.40;;;7.10;;
18210;SDS011;9231;48.852;9.882;2023-07-24T06:51:58;11.25;;;8.18;;
18210;SDS011;9231;48.852;9.882;2023-07-24T06:54:24;9.33;;;6.80;;
18210;SDS011;9231;48.852;9.882;2023-07-24T06:56:51;10.53;;;8.10;;
18210;SDS011;9231;48.852;9.882;2023-07-24T06:59:17;11.80;;;7.77;;
18210;SDS011;9231;48.852;9.882;2023-07-24T07:01:44;15.27;;;7.47;;
18210;SDS011;9231;48.852;9.882;2023-07-24T07:04:10;11.33;;;7.10;;
18210;SDS011;9231;48.852;9.882;2023-07-24T07:06:37;10.20;;;6.83;;
18210;SDS011;9231;48.852;9.882;2023-07-24T07:09:05;10.73;;;7.10;;
18210;SDS011;9231;48.852;9.882;2023-07-24T07:11:31;9.90;;;7.40;;
18210;SDS011;9231;48.852;9.882;2023-07-24T07:13:58;10.37;;;7.07;;
18210;SDS011;9231;48.852;9.882;2023-07-24T07:16:24;13.10;;;6.67;;
18210;SDS011;9231;48.852;9.882;2023-07-24T07:18:50;10.20;;;6.63;;
18210;SDS011;9231;48.852;9.882;2023-07-24T07:21:17;14.27;;;7.57;;
18210;SDS011;9231;48.852;9.882;2023-07-24T07:23:43;11.63;;;7.10;;
18210;SDS011;9231;48.852;9.882;2023-07-24T07:26:11;8.83;;;6.60;;
18210;SDS011;9231;48.852;9.882;2023-07-24T07:28:38;10.30;;;7.53;;
18210;SDS011;9231;48.852;9.882;2023-07-24T07:31:07;11.23;;;7.40;;
18210;SDS011;9231;48.852;9.882;2023-07-24T07:33:34;9.90;;;6.47;;
18210;SDS011;9231;48.852;9.882;2023-07-24T07:36:00;9.73;;;7.20;;
18210;SDS011;9231;48.852;9.882;2023-07-24T07:38:27;12.27;;;8.67;;
18210;SDS011;9231;48.852;9.882;2023-07-24T07:40:54;8.67;;;6.97;;
18210;SDS011;9231;48.852;9.882;2023-07-24T07:43:22;11.10;;;6.83;;
18210;SDS011;9231;48.852;9.882;2023-07-24T07:45:48;7.57;;;6.33;;
18210;SDS011;9231;48.852;9.882;2023-07-24T07:48:15;12.07;;;7.17;;
18210;SDS011;9231;48.852;9.882;2023-07-24T07:50:41;8.87;;;6.40;;
18210;SDS011;9231;48.852;9.882;2023-07-24T07:53:07;9.03;;;6.87;;
18210;SDS011;9231;48.852;9.882;2023-07-24T07:55:34;10.90;;;7.47;;
18210;SDS011;9231;48.852;9.882;2023-07-24T07:58:00;9.67;;;6.90;;
18210;SDS011;9231;48.852;9.882;2023-07-24T08:00:28;8.03;;;6.30;;
18210;SDS011;9231;48.852;9.882;2023-07-24T08:02:55;9.50;;;7.73;;
18210;SDS011;9231;48.852;9.882;2023-07-24T08:05:21;11.90;;;6.67;;
18210;SDS011;9231;48.852;9.882;2023-07-24T08:07:48;9.10;;;6.83;;
18210;SDS011;9231;48.852;9.882;2023-07-24T08:10:14;10.40;;;6.93;;
18210;SDS011;9231;48.852;9.882;2023-07-24T08:12:41;9.15;;;6.65;;
18210;SDS011;9231;48.852;9.882;2023-07-24T08:15:08;11.50;;;6.88;;
18210;SDS011;9231;48.852;9.882;2023-07-24T08:17:36;10.50;;;7.28;;
18210;SDS011;9231;48.852;9.882;2023-07-24T08:20:03;9.90;;;7.32;;
18210;SDS011;9231;48.852;9.882;2023-07-24T08:22:30;10.70;;;6.38;;
18210;SDS011;9231;48.852;9.882;2023-07-24T08:24:56;11.07;;;6.60;;
18210;SDS011;9231;48.852;9.882;2023-07-24T08:27:23;10.82;;;7.07;;
18210;SDS011;9231;48.852;9.882;2023-07-24T08:29:50;9.85;;;6.93;;
18210;SDS011;9231;48.852;9.882;2023-07-24T08:32:16;11.05;;;6.72;;
18210;SDS011;9231;48.852;9.882;2023-07-24T08:34:44;12.00;;;7.00;;
18210;SDS011;9231;48.852;9.882;2023-07-24T08:37:11;9.35;;;6.60;;
18210;SDS011;9231;48.852;9.882;2023-07-24T08:39:37;9.52;;;6.85;;
18210;SDS011;9231;48.852;9.882;2023-07-24T08:42:07;7.93;;;6.50;;
18210;SDS011;9231;48.852;9.882;2023-07-24T08:44:34;9.07;;;6.78;;
18210;SDS011;9231;48.852;9.882;2023-07-24T08:47:01;9.27;;;6.30;;
18210;SDS011;9231;48.852;9.882;2023-07-24T08:49:28;11.60;;;6.93;;
18210;SDS011;9231;48.852;9.882;2023-07-24T08:51:57;8.70;;;6.53;;
18210;SDS011;9231;48.852;9.882;2023-07-24T08:54:23;9.25;;;6.85;;
18210;SDS011;9231;48.852;9.882;2023-07-24T08:56:51;11.18;;;6.93;;
18210;SDS011;9231;48.852;9.882;2023-07-24T08:59:18;9.02;;;6.63;;
18210;SDS011;9231;48.852;9.882;2023-07-24T09:01:45;9.88;;;6.28;;
18210;SDS011;9231;48.852;9.882;2023-07-24T09:04:12;8.07;;;5.65;;
18210;SDS011;9231;48.852;9.882;2023-07-24T09:06:38;8.05;;;5.82;;
18210;SDS011;9231;48.852;9.882;2023-07-24T09:09:13;11.23;;;6.60;;
18210;SDS011;9231;48.852;9.882;2023-07-24T09:11:46;7.88;;;6.15;;
18210;SDS011;9231;48.852;9.882;2023-07-24T09:14:19;7.95;;;5.68;;
18210;SDS011;9231;48.852;9.882;2023-07-24T09:16:46;8.27;;;6.05;;
18210;SDS011;9231;48.852;9.882;2023-07-24T09:19:16;9.80;;;6.75;;
18210;SDS011;9231;48.852;9.882;2023-07-24T09:21:43;9.48;;;6.70;;
18210;SDS011;9231;48.852;9.882;2023-07-24T09:24:10;8.68;;;6.03;;
18210;SDS011;9231;48.852;9.882;2023-07-24T09:26:47;8.13;;;6.10;;
18210;SDS011;9231;48.852;9.882;2023-07-24T09:29:13;9.38;;;6.28;;
18210;SDS011;9231;48.852;9.882;2023-07-24T09:31:40;9.27;;;5.95;;
18210;SDS011;9231;48.852;9.882;2023-07-24T09:34:13;7.60;;;5.93;;
18210;SDS011;9231;48.852;9.882;2023-07-24T09:36:39;9.02;;;5.25;;
18210;SDS011;9231;48.852;9.882;2023-07-24T09:39:06;9.45;;;6.40;;
18210;SDS011;9231;48.852;9.882;2023-07-24T09:41:35;9.85;;;5.60;;
18210;SDS011;9231;48.852;9.882;2023-07-24T09:44:03;6.75;;;5.90;;
18210;SDS011;9231;48.852;9.882;2023-07-24T09:46:30;6.60;;;5.13;;
18210;SDS011;9231;48.852;9.882;2023-07-24T09:48:57;7.20;;;5.85;;
18210;SDS011;9231;48.852;9.882;2023-07-24T09:51:23;7.95;;;5.88;;
18210;SDS011;9231;48.852;9.882;2023-07-24T09:53:52;6.47;;;5.32;;
18210;SDS011;9231;48.852;9.882;2023-07-24T09:56:21;7.70;;;5.03;;
18210;SDS011;9231;48.852;9.882;2023-07-24T09:58:48;8.50;;;5.55;;
18210;SDS011;9231;48.852;9.882;2023-07-24T10:01:20;7.28;;;5.22;;
18210;SDS011;9231;48.852;9.882;2023-07-24T10:03:48;9.77;;;5.70;;
18210;SDS011;9231;48.852;9.882;2023-07-24T10:06:15;7.50;;;5.95;;
18210;SDS011;9231;48.852;9.882;2023-07-24T10:08:41;6.60;;;5.07;;
18210;SDS011;9231;48.852;9.882;2023-07-24T10:11:08;6.75;;;5.13;;
18210;SDS011;9231;48.852;9.882;2023-07-24T10:13:35;6.35;;;5.05;;
18210;SDS011;9231;48.852;9.882;2023-07-24T10:16:02;5.85;;;4.60;;
18210;SDS011;9231;48.852;9.882;2023-07-24T10:18:33;5.65;;;4.70;;
18210;SDS011;9231;48.852;9.882;2023-07-24T10:21:00;6.15;;;5.00;;
18210;SDS011;9231;48.852;9.882;2023-07-24T10:23:27;6.53;;;5.10;;
18210;SDS011;9231;48.852;9.882;2023-07-24T10:26:01;8.63;;;5.43;;
18210;SDS011;9231;48.852;9.882;2023-07-24T10:28:30;6.07;;;5.10;;
18210;SDS011;9231;48.852;9.882;2023-07-24T10:30:56;7.30;;;4.90;;
18210;SDS011;9231;48.852;9.882;2023-07-24T10:33:23;8.57;;;5.95;;
18210;SDS011;9231;48.852;9.882;2023-07-24T10:35:53;7.85;;;5.72;;
18210;SDS011;9231;48.852;9.882;2023-07-24T10:38:20;8.18;;;5.68;;
18210;SDS011;9231;48.852;9.882;2023-07-24T10:40:47;8.20;;;6.13;;
18210;SDS011;9231;48.852;9.882;2023-07-24T10:43:17;6.65;;;5.18;;
18210;SDS011;9231;48.852;9.882;2023-07-24T10:45:47;7.28;;;5.50;;
18210;SDS011;9231;48.852;9.882;2023-07-24T10:48:14;9.30;;;5.32;;
18210;SDS011;9231;48.852;9.882;2023-07-24T10:50:41;8.15;;;5.95;;
18210;SDS011;9231;48.852;9.882;2023-07-24T10:53:09;7.97;;;5.90;;
18210;SDS011;9231;48.852;9.882;2023-07-24T10:55:36;7.20;;;5.32;;
18210;SDS011;9231;48.852;9.882;2023-07-24T10:58:02;8.05;;;5.72;;
18210;SDS011;9231;48.852;9.882;2023-07-24T11:00:29;8.90;;;5.77;;
18210;SDS011;9231;48.852;9.882;2023-07-24T11:02:55;7.93;;;6.13;;
18210;SDS011;9231;48.852;9.882;2023-07-24T11:05:22;8.40;;;6.37;;
18210;SDS011;9231;48.852;9.882;2023-07-24T11:07:49;10.13;;;5.83;;
18210;SDS011;9231;48.852;9.882;2023-07-24T11:10:17;10.70;;;5.97;;
18210;SDS011;9231;48.852;9.882;2023-07-24T11:12:43;8.63;;;6.13;;
18210;SDS011;9231;48.852;9.882;2023-07-24T11:15:10;9.63;;;5.80;;
18210;SDS011;9231;48.852;9.882;2023-07-24T11:17:39;8.03;;;5.17;;
18210;SDS011;9231;48.852;9.882;2023-07-24T11:20:07;8.87;;;5.23;;
18210;SDS011;9231;48.852;9.882;2023-07-24T11:22:34;7.50;;;5.23;;
18210;SDS011;9231;48.852;9.882;2023-07-24T11:25:03;6.33;;;5.07;;
18210;SDS011;9231;48.852;9.882;2023-07-24T11:27:33;6.67;;;5.10;;
18210;SDS011;9231;48.852;9.882;2023-07-24T11:30:08;7.10;;;5.60;;
18210;SDS011;9231;48.852;9.882;2023-07-24T11:32:37;8.60;;;5.87;;
18210;SDS011;9231;48.852;9.882;2023-07-24T11:35:04;7.97;;;5.93;;
18210;SDS011;9231;48.852;9.882;2023-07-24T11:37:31;7.97;;;5.87;;
18210;SDS011;9231;48.852;9.882;2023-07-24T11:39:58;8.13;;;5.53;;
18210;SDS011;9231;48.852;9.882;2023-07-24T11:42:25;7.73;;;5.80;;
18210;SDS011;9231;48.852;9.882;2023-07-24T11:44:53;6.63;;;5.30;;
18210;SDS011;9231;48.852;9.882;2023-07-24T11:47:20;8.50;;;5.83;;
18210;SDS011;9231;48.852;9.882;2023-07-24T11:49:55;6.97;;;5.90;;
18210;SDS011;9231;48.852;9.882;2023-07-24T11:52:22;8.57;;;5.67;;
18210;SDS011;9231;48.852;9.882;2023-07-24T11:54:55;6.40;;;5.70;;
18210;SDS011;9231;48.852;9.882;2023-07-24T11:57:22;8.83;;;6.10;;
18210;SDS011;9231;48.852;9.882;2023-07-24T11:59:49;10.50;;;6.10;;
18210;SDS011;9231;48.852;9.882;2023-07-24T12:02:17;6.57;;;5.23;;
18210;SDS011;9231;48.852;9.882;2023-07-24T12:04:44;9.70;;;6.20;;
18210;SDS011;9231;48.852;9.882;2023-07-24T12:07:10;7.53;;;6.47;;
18210;SDS011;9231;48.852;9.882;2023-07-24T12:09:37;8.47;;;5.97;;
18210;SDS011;9231;48.852;9.882;2023-07-24T12:12:04;8.70;;;6.33;;
18210;SDS011;9231;48.852;9.882;2023-07-24T12:14:30;9.33;;;6.13;;
18210;SDS011;9231;48.852;9.882;2023-07-24T12:17:00;9.00;;;5.73;;
18210;SDS011;9231;48.852;9.882;2023-07-24T12:19:28;8.75;;;6.10;;
18210;SDS011;9231;48.852;9.882;2023-07-24T12:21:54;8.07;;;5.53;;
18210;SDS011;9231;48.852;9.882;2023-07-24T12:24:21;10.88;;;6.00;;
18210;SDS011;9231;48.852;9.882;2023-07-24T12:26:47;8.40;;;5.97;;
18210;SDS011;9231;48.852;9.882;2023-07-24T12:29:14;8.73;;;5.63;;
18210;SDS011;9231;48.852;9.882;2023-07-24T12:31:40;7.68;;;6.25;;
18210;SDS011;9231;48.852;9.882;2023-07-24T12:34:07;8.32;;;6.10;;
18210;SDS011;9231;48.852;9.882;2023-07-24T12:36:35;8.50;;;6.40;;
18210;SDS011;9231;48.852;9.882;2023-07-24T12:39:02;7.82;;;6.15;;
18210;SDS011;9231;48.852;9.882;2023-07-24T12:41:28;7.93;;;5.70;;
18210;SDS011;9231;48.852;9.882;2023-07-24T12:43:55;7.97;;;5.43;;
18210;SDS011;9231;48.852;9.882;2023-07-24T12:46:21;8.18;;;5.95;;
18210;SDS011;9231;48.852;9.882;2023-07-24T12:48:48;6.72;;;5.50;;
18210;SDS011;9231;48.852;9.882;2023-07-24T12:51:14;6.10;;;5.03;;
18210;SDS011;9231;48.852;9.882;2023-07-24T12:53:42;8.90;;;6.20;;
18210;SDS011;9231;48.852;9.882;2023-07-24T12:56:08;7.72;;;5.60;;
18210;SDS011;9231;48.852;9.882;2023-07-24T12:58:35;6.45;;;5.30;;
18210;SDS011;9231;48.852;9.882;2023-07-24T13:01:01;8.13;;;5.53;;
18210;SDS011;9231;48.852;9.882;2023-07-24T13:03:28;7.47;;;5.63;;
18210;SDS011;9231;48.852;9.882;2023-07-24T13:05:54;6.07;;;5.05;;
18210;SDS011;9231;48.852;9.882;2023-07-24T13:08:21;7.80;;;5.65;;
18210;SDS011;9231;48.852;9.882;2023-07-24T13:10:50;7.32;;;5.28;;
18210;SDS011;9231;48.852;9.882;2023-07-24T13:13:17;5.55;;;4.72;;
18210;SDS011;9231;48.852;9.882;2023-07-24T13:15:43;7.72;;;5.00;;
18210;SDS011;9231;48.852;9.882;2023-07-24T13:18:09;5.45;;;4.57;;
18210;SDS011;9231;48.852;9.882;2023-07-24T13:20:38;6.32;;;4.95;;
18210;SDS011;9231;48.852;9.882;2023-07-24T13:23:05;6.40;;;4.63;;
18210;SDS011;9231;48.852;9.882;2023-07-24T13:25:31;5.05;;;4.28;;
18210;SDS011;9231;48.852;9.882;2023-07-24T13:27:59;5.38;;;4.22;;
18210;SDS011;9231;48.852;9.882;2023-07-24T13:30:26;4.68;;;4.15;;
18210;SDS011;9231;48.852;9.882;2023-07-24T13:32:52;6.63;;;4.32;;
18210;SDS011;9231;48.852;9.882;2023-07-24T13:35:19;4.20;;;3.80;;
18210;SDS011;9231;48.852;9.882;2023-07-24T13:37:45;4.55;;;3.83;;
18210;SDS011;9231;48.852;9.882;2023-07-24T13:40:11;6.85;;;3.90;;
18210;SDS011;9231;48.852;9.882;2023-07-24T13:42:38;5.50;;;4.13;;
18210;SDS011;9231;48.852;9.882;2023-07-24T13:45:07;4.82;;;3.95;;
18210;SDS011;9231;48.852;9.882;2023-07-24T13:47:33;4.63;;;3.83;;
18210;SDS011;9231;48.852;9.882;2023-07-24T13:50:00;4.90;;;3.95;;
18210;SDS011;9231;48.852;9.882;2023-07-24T13:52:28;4.85;;;4.00;;
18210;SDS011;9231;48.852;9.882;2023-07-24T13:54:54;4.40;;;3.80;;
18210;SDS011;9231;48.852;9.882;2023-07-24T13:57:21;6.03;;;4.80;;
18210;SDS011;9231;48.852;9.882;2023-07-24T13:59:48;5.35;;;3.80;;
18210;SDS011;9231;48.852;9.882;2023-07-24T14:02:16;5.53;;;4.20;;
18210;SDS011;9231;48.852;9.882;2023-07-24T14:04:43;6.22;;;4.15;;
18210;SDS011;9231;48.852;9.882;2023-07-24T14:07:10;4.93;;;4.10;;
18210;SDS011;9231;48.852;9.882;2023-07-24T14:09:38;4.50;;;3.53;;
18210;SDS011;9231;48.852;9.882;2023-07-24T14:12:05;5.07;;;4.03;;
18210;SDS011;9231;48.852;9.882;2023-07-24T14:14:32;3.70;;;3.20;;
18210;SDS011;9231;48.852;9.882;2023-07-24T14:16:58;4.28;;;3.70;;
18210;SDS011;9231;48.852;9.882;2023-07-24T14:19:26;5.50;;;4.60;;
18210;SDS011;9231;48.852;9.882;2023-07-24T14:21:52;5.28;;;4.13;;
18210;SDS011;9231;48.852;9.882;2023-07-24T14:24:19;5.18;;;3.95;;
18210;SDS011;9231;48.852;9.882;2023-07-24T14:26:45;5.57;;;3.90;;
18210;SDS011;9231;48.852;9.882;2023-07-24T14:29:12;6.30;;;3.78;;
18210;SDS011;9231;48.852;9.882;2023-07-24T14:31:39;4.45;;;3.88;;
18210;SDS011;9231;48.852;9.882;2023-07-24T14:34:06;4.50;;;3.97;;
18210;SDS011;9231;48.852;9.882;2023-07-24T14:36:37;4.97;;;3.97;;
18210;SDS011;9231;48.852;9.882;2023-07-24T14:39:03;5.03;;;3.80;;
18210;SDS011;9231;48.852;9.882;2023-07-24T14:41:32;4.53;;;3.92;;
18210;SDS011;9231;48.852;9.882;2023-07-24T14:43:59;5.28;;;4.20;;
18210;SDS011;9231;48.852;9.882;2023-07-24T14:46:25;5.00;;;3.85;;
18210;SDS011;9231;48.852;9.882;2023-07-24T14:48:52;4.25;;;3.50;;
18210;SDS011;9231;48.852;9.882;2023-07-24T14:51:18;4.05;;;3.53;;
18210;SDS011;9231;48.852;9.882;2023-07-24T14:53:46;5.03;;;3.80;;
18210;SDS011;9231;48.852;9.882;2023-07-24T14:56:13;4.80;;;3.17;;